sensor_id;sensor_type;location;lat;lon;timestamp;temperature;humidity
73322;DHT22;61549;37.044;22.128;2023-04-30T00:01:21;17.30;47.40
73322;DHT22;61549;37.044;22.128;2023-04-30T00:03:47;17.30;46.70
73322;DHT22;61549;37.044;22.128;2023-04-30T00:06:13;17.20;47.20
73322;DHT22;61549;37.044;22.128;2023-04-30T00:08:40;17.30;48.00
73322;DHT22;61549;37.044;22.128;2023-04-30T00:11:05;17.30;48.00
73322;DHT22;61549;37.044;22.128;2023-04-30T00:13:31;17.20;47.60
73322;DHT22;61549;37.044;22.128;2023-04-30T00:15:57;17.20;47.90
73322;DHT22;61549;37.044;22.128;2023-04-30T00:18:23;17.20;48.40
73322;DHT22;61549;37.044;22.128;2023-04-30T00:20:56;17.10;47.70
73322;DHT22;61549;37.044;22.128;2023-04-30T00:23:22;17.20;47.60
73322;DHT22;61549;37.044;22.128;2023-04-30T00:25:53;17.20;48.40
73322;DHT22;61549;37.044;22.128;2023-04-30T00:28:18;17.20;48.40
73322;DHT22;61549;37.044;22.128;2023-04-30T00:30:56;17.20;47.70
73322;DHT22;61549;37.044;22.128;2023-04-30T00:33:22;17.30;47.30
73322;DHT22;61549;37.044;22.128;2023-04-30T00:35:48;17.20;46.70
73322;DHT22;61549;37.044;22.128;2023-04-30T00:38:15;17.30;47.70
73322;DHT22;61549;37.044;22.128;2023-04-30T00:40:42;17.40;48.20
73322;DHT22;61549;37.044;22.128;2023-04-30T00:43:09;17.40;48.00
73322;DHT22;61549;37.044;22.128;2023-04-30T00:45:35;17.40;48.20
73322;DHT22;61549;37.044;22.128;2023-04-30T00:48:17;17.40;47.10
73322;DHT22;61549;37.044;22.128;2023-04-30T00:50:44;17.40;47.00
73322;DHT22;61549;37.044;22.128;2023-04-30T00:53:13;17.30;47.20
73322;DHT22;61549;37.044;22.128;2023-04-30T00:55:52;17.40;47.50
73322;DHT22;61549;37.044;22.128;2023-04-30T00:58:18;17.40;47.50
73322;DHT22;61549;37.044;22.128;2023-04-30T01:00:44;17.30;48.00
73322;DHT22;61549;37.044;22.128;2023-04-30T01:03:31;17.30;47.80
73322;DHT22;61549;37.044;22.128;2023-04-30T01:08:43;17.30;48.70
73322;DHT22;61549;37.044;22.128;2023-04-30T01:13:52;17.30;47.60
73322;DHT22;61549;37.044;22.128;2023-04-30T01:16:22;17.20;46.90
73322;DHT22;61549;37.044;22.128;2023-04-30T01:19:03;17.20;47.20
73322;DHT22;61549;37.044;22.128;2023-04-30T01:21:30;17.20;48.30
73322;DHT22;61549;37.044;22.128;2023-04-30T01:29:26;17.30;48.20
73322;DHT22;61549;37.044;22.128;2023-04-30T01:32:01;17.30;48.60
73322;DHT22;61549;37.044;22.128;2023-04-30T01:34:31;17.30;49.00
73322;DHT22;61549;37.044;22.128;2023-04-30T01:48:39;17.30;49.50
73322;DHT22;61549;37.044;22.128;2023-04-30T01:51:22;17.30;50.40
73322;DHT22;61549;37.044;22.128;2023-04-30T01:53:49;17.40;51.00
73322;DHT22;61549;37.044;22.128;2023-04-30T01:56:35;17.40;51.90
73322;DHT22;61549;37.044;22.128;2023-04-30T01:59:09;17.30;49.40
73322;DHT22;61549;37.044;22.128;2023-04-30T02:01:42;17.30;50.50
73322;DHT22;61549;37.044;22.128;2023-04-30T02:04:14;17.30;51.10
73322;DHT22;61549;37.044;22.128;2023-04-30T02:06:41;17.20;49.60
73322;DHT22;61549;37.044;22.128;2023-04-30T02:09:09;17.10;49.50
73322;DHT22;61549;37.044;22.128;2023-04-30T02:11:35;17.10;50.50
73322;DHT22;61549;37.044;22.128;2023-04-30T02:14:11;17.10;50.30
73322;DHT22;61549;37.044;22.128;2023-04-30T02:16:37;17.20;49.80
73322;DHT22;61549;37.044;22.128;2023-04-30T02:19:03;17.20;49.20
73322;DHT22;61549;37.044;22.128;2023-04-30T02:21:28;17.20;49.40
73322;DHT22;61549;37.044;22.128;2023-04-30T02:24:05;17.10;49.30
73322;DHT22;61549;37.044;22.128;2023-04-30T02:26:31;17.20;50.20
73322;DHT22;61549;37.044;22.128;2023-04-30T02:28:57;17.10;50.60
73322;DHT22;61549;37.044;22.128;2023-04-30T02:31:30;17.10;51.00
73322;DHT22;61549;37.044;22.128;2023-04-30T02:34:04;17.10;50.60
73322;DHT22;61549;37.044;22.128;2023-04-30T02:36:30;17.10;49.80
73322;DHT22;61549;37.044;22.128;2023-04-30T02:39:00;17.10;50.50
73322;DHT22;61549;37.044;22.128;2023-04-30T02:41:34;17.20;51.00
73322;DHT22;61549;37.044;22.128;2023-04-30T02:44:01;17.20;50.90
73322;DHT22;61549;37.044;22.128;2023-04-30T02:46:31;17.20;51.10
73322;DHT22;61549;37.044;22.128;2023-04-30T02:48:57;17.20;51.40
73322;DHT22;61549;37.044;22.128;2023-04-30T02:51:23;17.30;51.90
73322;DHT22;61549;37.044;22.128;2023-04-30T02:53:49;17.30;51.20
73322;DHT22;61549;37.044;22.128;2023-04-30T02:56:16;17.30;51.20
73322;DHT22;61549;37.044;22.128;2023-04-30T02:58:42;17.30;51.40
73322;DHT22;61549;37.044;22.128;2023-04-30T03:01:07;17.30;50.70
73322;DHT22;61549;37.044;22.128;2023-04-30T03:03:33;17.30;50.70
73322;DHT22;61549;37.044;22.128;2023-04-30T03:06:09;17.40;51.60
73322;DHT22;61549;37.044;22.128;2023-04-30T03:08:35;17.40;51.60
73322;DHT22;61549;37.044;22.128;2023-04-30T03:11:01;17.40;51.80
73322;DHT22;61549;37.044;22.128;2023-04-30T03:13:27;17.40;51.30
73322;DHT22;61549;37.044;22.128;2023-04-30T03:16:00;17.40;51.80
73322;DHT22;61549;37.044;22.128;2023-04-30T03:18:27;17.40;51.10
73322;DHT22;61549;37.044;22.128;2023-04-30T03:20:53;17.40;50.10
73322;DHT22;61549;37.044;22.128;2023-04-30T03:23:18;17.40;51.90
73322;DHT22;61549;37.044;22.128;2023-04-30T03:25:44;17.40;53.70
73322;DHT22;61549;37.044;22.128;2023-04-30T03:28:12;17.50;54.90
73322;DHT22;61549;37.044;22.128;2023-04-30T03:30:38;17.50;56.20
73322;DHT22;61549;37.044;22.128;2023-04-30T03:33:04;17.50;57.00
73322;DHT22;61549;37.044;22.128;2023-04-30T03:35:37;17.40;57.60
73322;DHT22;61549;37.044;22.128;2023-04-30T03:38:03;17.30;58.10
73322;DHT22;61549;37.044;22.128;2023-04-30T03:40:30;17.20;58.10
73322;DHT22;61549;37.044;22.128;2023-04-30T03:42:55;17.20;58.10
73322;DHT22;61549;37.044;22.128;2023-04-30T03:45:21;17.10;58.30
73322;DHT22;61549;37.044;22.128;2023-04-30T03:47:47;17.10;58.90
73322;DHT22;61549;37.044;22.128;2023-04-30T03:50:13;17.20;58.30
73322;DHT22;61549;37.044;22.128;2023-04-30T03:52:39;17.20;58.30
73322;DHT22;61549;37.044;22.128;2023-04-30T03:55:05;17.20;58.70
73322;DHT22;61549;37.044;22.128;2023-04-30T03:57:32;17.20;58.70
73322;DHT22;61549;37.044;22.128;2023-04-30T03:59:58;17.20;59.60
73322;DHT22;61549;37.044;22.128;2023-04-30T04:02:24;17.20;59.90
73322;DHT22;61549;37.044;22.128;2023-04-30T04:04:50;17.30;60.00
73322;DHT22;61549;37.044;22.128;2023-04-30T04:07:16;17.30;60.40
73322;DHT22;61549;37.044;22.128;2023-04-30T04:09:42;17.30;60.70
73322;DHT22;61549;37.044;22.128;2023-04-30T04:12:08;17.30;60.50
73322;DHT22;61549;37.044;22.128;2023-04-30T04:14:34;17.30;60.50
73322;DHT22;61549;37.044;22.128;2023-04-30T04:17:00;17.30;60.80
73322;DHT22;61549;37.044;22.128;2023-04-30T04:19:26;17.30;60.20
73322;DHT22;61549;37.044;22.128;2023-04-30T04:21:52;17.30;60.30
73322;DHT22;61549;37.044;22.128;2023-04-30T04:24:18;17.40;60.50
73322;DHT22;61549;37.044;22.128;2023-04-30T04:26:44;17.40;60.80
73322;DHT22;61549;37.044;22.128;2023-04-30T04:29:10;17.30;61.20
73322;DHT22;61549;37.044;22.128;2023-04-30T04:31:37;17.30;61.00
73322;DHT22;61549;37.044;22.128;2023-04-30T04:34:04;17.30;60.30
73322;DHT22;61549;37.044;22.128;2023-04-30T04:36:30;17.20;59.80
73322;DHT22;61549;37.044;22.128;2023-04-30T04:38:59;17.30;59.50
73322;DHT22;61549;37.044;22.128;2023-04-30T04:41:32;17.30;60.50
73322;DHT22;61549;37.044;22.128;2023-04-30T04:43:59;17.40;59.70
73322;DHT22;61549;37.044;22.128;2023-04-30T04:46:29;17.40;59.00
73322;DHT22;61549;37.044;22.128;2023-04-30T04:48:56;17.10;58.80
73322;DHT22;61549;37.044;22.128;2023-04-30T04:51:22;17.30;60.20
73322;DHT22;61549;37.044;22.128;2023-04-30T04:53:48;17.40;61.30
73322;DHT22;61549;37.044;22.128;2023-04-30T04:56:14;17.50;59.70
73322;DHT22;61549;37.044;22.128;2023-04-30T04:58:41;17.60;60.30
73322;DHT22;61549;37.044;22.128;2023-04-30T05:01:07;17.60;60.60
73322;DHT22;61549;37.044;22.128;2023-04-30T05:03:34;17.70;60.90
73322;DHT22;61549;37.044;22.128;2023-04-30T05:06:05;17.70;60.80
73322;DHT22;61549;37.044;22.128;2023-04-30T05:08:31;17.80;61.10
73322;DHT22;61549;37.044;22.128;2023-04-30T05:10:57;17.80;59.90
73322;DHT22;61549;37.044;22.128;2023-04-30T05:13:23;17.70;60.00
73322;DHT22;61549;37.044;22.128;2023-04-30T05:15:51;17.80;60.20
73322;DHT22;61549;37.044;22.128;2023-04-30T05:18:17;17.90;60.80
73322;DHT22;61549;37.044;22.128;2023-04-30T05:20:43;17.90;60.90
73322;DHT22;61549;37.044;22.128;2023-04-30T05:23:09;17.90;61.30
73322;DHT22;61549;37.044;22.128;2023-04-30T05:25:35;17.90;61.50
73322;DHT22;61549;37.044;22.128;2023-04-30T05:28:01;18.00;61.10
73322;DHT22;61549;37.044;22.128;2023-04-30T05:30:28;18.00;59.40
73322;DHT22;61549;37.044;22.128;2023-04-30T05:32:54;18.10;60.00
73322;DHT22;61549;37.044;22.128;2023-04-30T05:35:21;18.20;60.30
73322;DHT22;61549;37.044;22.128;2023-04-30T05:37:47;18.20;60.00
73322;DHT22;61549;37.044;22.128;2023-04-30T05:40:13;18.30;59.80
73322;DHT22;61549;37.044;22.128;2023-04-30T05:42:40;18.30;57.20
73322;DHT22;61549;37.044;22.128;2023-04-30T05:45:11;18.30;57.80
73322;DHT22;61549;37.044;22.128;2023-04-30T05:47:39;18.30;58.70
73322;DHT22;61549;37.044;22.128;2023-04-30T05:50:08;18.30;58.10
73322;DHT22;61549;37.044;22.128;2023-04-30T05:52:34;18.30;58.20
73322;DHT22;61549;37.044;22.128;2023-04-30T05:55:00;18.10;59.10
73322;DHT22;61549;37.044;22.128;2023-04-30T05:57:26;18.20;59.30
73322;DHT22;61549;37.044;22.128;2023-04-30T05:59:51;18.20;59.80
73322;DHT22;61549;37.044;22.128;2023-04-30T06:02:19;18.30;60.30
73322;DHT22;61549;37.044;22.128;2023-04-30T06:04:44;18.30;60.90
73322;DHT22;61549;37.044;22.128;2023-04-30T06:07:10;18.20;61.30
73322;DHT22;61549;37.044;22.128;2023-04-30T06:09:36;18.30;61.30
73322;DHT22;61549;37.044;22.128;2023-04-30T06:12:02;18.40;61.50
73322;DHT22;61549;37.044;22.128;2023-04-30T06:14:44;18.10;61.70
73322;DHT22;61549;37.044;22.128;2023-04-30T06:17:11;18.20;61.90
73322;DHT22;61549;37.044;22.128;2023-04-30T06:19:37;18.20;61.40
73322;DHT22;61549;37.044;22.128;2023-04-30T06:22:03;18.00;62.00
73322;DHT22;61549;37.044;22.128;2023-04-30T06:24:29;18.10;62.50
73322;DHT22;61549;37.044;22.128;2023-04-30T06:26:55;18.30;63.00
73322;DHT22;61549;37.044;22.128;2023-04-30T06:29:21;18.20;61.90
73322;DHT22;61549;37.044;22.128;2023-04-30T06:31:49;17.80;63.90
73322;DHT22;61549;37.044;22.128;2023-04-30T06:34:16;17.90;64.30
73322;DHT22;61549;37.044;22.128;2023-04-30T06:36:41;18.20;64.30
73322;DHT22;61549;37.044;22.128;2023-04-30T06:39:07;18.50;60.50
73322;DHT22;61549;37.044;22.128;2023-04-30T06:41:33;18.60;58.80
73322;DHT22;61549;37.044;22.128;2023-04-30T06:43:59;18.80;58.20
73322;DHT22;61549;37.044;22.128;2023-04-30T06:46:25;18.90;57.50
73322;DHT22;61549;37.044;22.128;2023-04-30T06:48:51;19.00;57.80
73322;DHT22;61549;37.044;22.128;2023-04-30T06:51:16;19.10;57.30
73322;DHT22;61549;37.044;22.128;2023-04-30T06:53:42;19.20;57.30
73322;DHT22;61549;37.044;22.128;2023-04-30T06:56:08;19.20;58.00
73322;DHT22;61549;37.044;22.128;2023-04-30T06:58:34;19.10;58.20
73322;DHT22;61549;37.044;22.128;2023-04-30T07:01:00;19.10;57.90
73322;DHT22;61549;37.044;22.128;2023-04-30T07:03:25;19.30;57.90
73322;DHT22;61549;37.044;22.128;2023-04-30T07:05:52;19.30;57.40
73322;DHT22;61549;37.044;22.128;2023-04-30T07:08:18;19.40;56.80
73322;DHT22;61549;37.044;22.128;2023-04-30T07:10:44;19.00;57.10
73322;DHT22;61549;37.044;22.128;2023-04-30T07:13:10;18.70;58.40
73322;DHT22;61549;37.044;22.128;2023-04-30T07:15:36;18.90;57.80
73322;DHT22;61549;37.044;22.128;2023-04-30T07:18:02;19.00;57.40
73322;DHT22;61549;37.044;22.128;2023-04-30T07:20:29;19.10;57.70
73322;DHT22;61549;37.044;22.128;2023-04-30T07:22:55;19.00;57.10
73322;DHT22;61549;37.044;22.128;2023-04-30T07:25:21;19.10;57.50
73322;DHT22;61549;37.044;22.128;2023-04-30T07:27:46;19.10;57.40
73322;DHT22;61549;37.044;22.128;2023-04-30T07:30:12;19.00;57.50
73322;DHT22;61549;37.044;22.128;2023-04-30T07:32:38;19.00;57.80
73322;DHT22;61549;37.044;22.128;2023-04-30T07:35:06;19.00;58.00
73322;DHT22;61549;37.044;22.128;2023-04-30T07:37:32;19.10;59.80
73322;DHT22;61549;37.044;22.128;2023-04-30T07:39:58;19.20;59.90
73322;DHT22;61549;37.044;22.128;2023-04-30T07:42:23;19.20;59.10
73322;DHT22;61549;37.044;22.128;2023-04-30T07:44:49;19.30;58.00
73322;DHT22;61549;37.044;22.128;2023-04-30T07:47:20;19.30;57.60
73322;DHT22;61549;37.044;22.128;2023-04-30T07:49:46;19.30;57.90
73322;DHT22;61549;37.044;22.128;2023-04-30T07:52:13;19.30;58.20
73322;DHT22;61549;37.044;22.128;2023-04-30T07:54:39;19.40;57.90
73322;DHT22;61549;37.044;22.128;2023-04-30T07:57:08;19.40;58.30
73322;DHT22;61549;37.044;22.128;2023-04-30T07:59:33;19.40;58.10
73322;DHT22;61549;37.044;22.128;2023-04-30T08:02:00;19.50;58.10
73322;DHT22;61549;37.044;22.128;2023-04-30T08:04:26;19.50;58.40
73322;DHT22;61549;37.044;22.128;2023-04-30T08:06:52;19.50;58.20
73322;DHT22;61549;37.044;22.128;2023-04-30T08:09:17;19.60;58.60
73322;DHT22;61549;37.044;22.128;2023-04-30T08:11:43;19.60;57.90
73322;DHT22;61549;37.044;22.128;2023-04-30T08:14:09;19.40;58.20
73322;DHT22;61549;37.044;22.128;2023-04-30T08:16:36;19.60;55.70
73322;DHT22;61549;37.044;22.128;2023-04-30T08:19:02;19.70;56.40
73322;DHT22;61549;37.044;22.128;2023-04-30T08:21:28;19.80;56.50
73322;DHT22;61549;37.044;22.128;2023-04-30T08:23:55;19.80;56.50
73322;DHT22;61549;37.044;22.128;2023-04-30T08:26:21;19.80;56.40
73322;DHT22;61549;37.044;22.128;2023-04-30T08:28:48;19.70;56.90
73322;DHT22;61549;37.044;22.128;2023-04-30T08:31:14;19.50;57.40
73322;DHT22;61549;37.044;22.128;2023-04-30T08:33:40;19.40;58.00
73322;DHT22;61549;37.044;22.128;2023-04-30T08:36:06;19.30;59.10
73322;DHT22;61549;37.044;22.128;2023-04-30T08:38:31;19.00;58.70
73322;DHT22;61549;37.044;22.128;2023-04-30T08:41:17;19.30;57.50
73322;DHT22;61549;37.044;22.128;2023-04-30T08:43:45;19.60;57.60
73322;DHT22;61549;37.044;22.128;2023-04-30T08:46:13;19.80;56.60
73322;DHT22;61549;37.044;22.128;2023-04-30T08:48:41;20.00;54.70
73322;DHT22;61549;37.044;22.128;2023-04-30T08:51:07;20.10;55.60
73322;DHT22;61549;37.044;22.128;2023-04-30T08:53:36;20.00;55.60
73322;DHT22;61549;37.044;22.128;2023-04-30T08:56:03;20.00;56.20
73322;DHT22;61549;37.044;22.128;2023-04-30T08:58:30;20.00;56.80
73322;DHT22;61549;37.044;22.128;2023-04-30T09:01:00;20.00;56.40
73322;DHT22;61549;37.044;22.128;2023-04-30T09:03:26;20.00;56.90
73322;DHT22;61549;37.044;22.128;2023-04-30T09:05:54;20.00;56.60
73322;DHT22;61549;37.044;22.128;2023-04-30T09:08:43;20.10;55.90
73322;DHT22;61549;37.044;22.128;2023-04-30T09:11:29;20.30;55.30
73322;DHT22;61549;37.044;22.128;2023-04-30T09:14:00;20.40;54.70
73322;DHT22;61549;37.044;22.128;2023-04-30T09:16:27;20.50;54.00
73322;DHT22;61549;37.044;22.128;2023-04-30T09:18:58;20.60;53.90
73322;DHT22;61549;37.044;22.128;2023-04-30T09:21:31;20.70;53.80
73322;DHT22;61549;37.044;22.128;2023-04-30T09:23:59;20.80;53.60
73322;DHT22;61549;37.044;22.128;2023-04-30T09:26:36;20.90;53.50
73322;DHT22;61549;37.044;22.128;2023-04-30T09:29:03;21.00;52.30
73322;DHT22;61549;37.044;22.128;2023-04-30T09:31:42;21.00;52.30
73322;DHT22;61549;37.044;22.128;2023-04-30T09:34:09;21.10;51.50
73322;DHT22;61549;37.044;22.128;2023-04-30T09:36:35;21.00;51.30
73322;DHT22;61549;37.044;22.128;2023-04-30T09:39:11;21.00;51.50
73322;DHT22;61549;37.044;22.128;2023-04-30T09:41:38;21.10;52.00
73322;DHT22;61549;37.044;22.128;2023-04-30T09:44:04;21.00;49.40
73322;DHT22;61549;37.044;22.128;2023-04-30T09:46:34;21.00;48.50
73322;DHT22;61549;37.044;22.128;2023-04-30T09:49:03;21.00;47.60
73322;DHT22;61549;37.044;22.128;2023-04-30T09:51:29;21.00;48.40
73322;DHT22;61549;37.044;22.128;2023-04-30T09:53:56;21.00;49.40
73322;DHT22;61549;37.044;22.128;2023-04-30T09:56:24;20.90;49.70
73322;DHT22;61549;37.044;22.128;2023-04-30T09:58:54;21.00;49.20
73322;DHT22;61549;37.044;22.128;2023-04-30T10:01:24;21.10;48.70
73322;DHT22;61549;37.044;22.128;2023-04-30T10:03:51;21.20;49.00
73322;DHT22;61549;37.044;22.128;2023-04-30T10:06:19;21.30;48.40
73322;DHT22;61549;37.044;22.128;2023-04-30T10:09:05;21.40;47.00
73322;DHT22;61549;37.044;22.128;2023-04-30T10:11:32;21.50;46.80
73322;DHT22;61549;37.044;22.128;2023-04-30T10:14:09;21.70;46.10
73322;DHT22;61549;37.044;22.128;2023-04-30T10:16:58;21.90;44.90
73322;DHT22;61549;37.044;22.128;2023-04-30T10:19:35;22.00;45.20
73322;DHT22;61549;37.044;22.128;2023-04-30T10:22:04;22.20;45.30
73322;DHT22;61549;37.044;22.128;2023-04-30T10:24:32;22.30;42.90
73322;DHT22;61549;37.044;22.128;2023-04-30T10:26:59;22.40;41.80
73322;DHT22;61549;37.044;22.128;2023-04-30T10:29:25;22.40;40.40
73322;DHT22;61549;37.044;22.128;2023-04-30T10:31:51;22.50;39.50
73322;DHT22;61549;37.044;22.128;2023-04-30T10:34:49;22.50;39.50
73322;DHT22;61549;37.044;22.128;2023-04-30T10:39:51;22.70;40.60
73322;DHT22;61549;37.044;22.128;2023-04-30T10:42:21;22.60;40.60
73322;DHT22;61549;37.044;22.128;2023-04-30T10:44:47;22.70;40.70
73322;DHT22;61549;37.044;22.128;2023-04-30T10:47:15;22.70;41.60
73322;DHT22;61549;37.044;22.128;2023-04-30T10:49:48;22.70;41.70
73322;DHT22;61549;37.044;22.128;2023-04-30T10:52:25;22.70;41.30
73322;DHT22;61549;37.044;22.128;2023-04-30T10:54:54;22.80;40.80
73322;DHT22;61549;37.044;22.128;2023-04-30T10:57:20;22.70;41.10
73322;DHT22;61549;37.044;22.128;2023-04-30T11:00:17;22.70;41.00
73322;DHT22;61549;37.044;22.128;2023-04-30T11:02:39;22.60;40.80
73322;DHT22;61549;37.044;22.128;2023-04-30T11:05:14;22.60;40.70
73322;DHT22;61549;37.044;22.128;2023-04-30T11:07:47;22.70;40.70
73322;DHT22;61549;37.044;22.128;2023-04-30T11:10:13;22.70;40.60
73322;DHT22;61549;37.044;22.128;2023-04-30T11:12:41;22.80;41.30
73322;DHT22;61549;37.044;22.128;2023-04-30T11:15:13;22.90;40.50
73322;DHT22;61549;37.044;22.128;2023-04-30T11:17:42;22.90;40.50
73322;DHT22;61549;37.044;22.128;2023-04-30T11:20:11;23.00;41.00
73322;DHT22;61549;37.044;22.128;2023-04-30T11:22:39;22.90;41.30
73322;DHT22;61549;37.044;22.128;2023-04-30T11:25:10;22.90;40.80
73322;DHT22;61549;37.044;22.128;2023-04-30T11:27:40;22.80;41.00
73322;DHT22;61549;37.044;22.128;2023-04-30T11:30:11;22.80;41.40
73322;DHT22;61549;37.044;22.128;2023-04-30T11:32:40;23.00;40.80
73322;DHT22;61549;37.044;22.128;2023-04-30T11:35:06;23.10;40.70
73322;DHT22;61549;37.044;22.128;2023-04-30T11:37:37;23.20;41.80
73322;DHT22;61549;37.044;22.128;2023-04-30T11:40:07;23.30;41.80
73322;DHT22;61549;37.044;22.128;2023-04-30T11:42:36;23.20;42.20
73322;DHT22;61549;37.044;22.128;2023-04-30T11:45:05;23.20;43.40
73322;DHT22;61549;37.044;22.128;2023-04-30T11:47:50;23.20;43.40
73322;DHT22;61549;37.044;22.128;2023-04-30T11:50:21;23.20;44.10
73322;DHT22;61549;37.044;22.128;2023-04-30T11:52:54;23.20;43.50
73322;DHT22;61549;37.044;22.128;2023-04-30T11:55:22;23.10;42.70
73322;DHT22;61549;37.044;22.128;2023-04-30T11:57:50;23.10;43.10
73322;DHT22;61549;37.044;22.128;2023-04-30T12:00:19;23.00;44.90
73322;DHT22;61549;37.044;22.128;2023-04-30T12:02:48;22.80;44.40
73322;DHT22;61549;37.044;22.128;2023-04-30T12:05:19;22.70;45.30
73322;DHT22;61549;37.044;22.128;2023-04-30T12:07:56;22.70;45.10
73322;DHT22;61549;37.044;22.128;2023-04-30T12:10:23;22.70;44.40
73322;DHT22;61549;37.044;22.128;2023-04-30T12:12:52;22.80;44.60
73322;DHT22;61549;37.044;22.128;2023-04-30T12:15:21;22.80;44.30
73322;DHT22;61549;37.044;22.128;2023-04-30T12:17:56;22.60;44.50
73322;DHT22;61549;37.044;22.128;2023-04-30T12:20:24;22.60;44.70
73322;DHT22;61549;37.044;22.128;2023-04-30T12:22:51;22.50;45.40
73322;DHT22;61549;37.044;22.128;2023-04-30T12:25:22;22.40;46.70
73322;DHT22;61549;37.044;22.128;2023-04-30T12:27:52;22.40;46.40
73322;DHT22;61549;37.044;22.128;2023-04-30T12:30:23;22.30;46.30
73322;DHT22;61549;37.044;22.128;2023-04-30T12:32:52;22.30;47.00
73322;DHT22;61549;37.044;22.128;2023-04-30T12:35:20;22.30;46.00
73322;DHT22;61549;37.044;22.128;2023-04-30T12:37:52;22.30;46.40
73322;DHT22;61549;37.044;22.128;2023-04-30T12:40:20;22.30;45.40
73322;DHT22;61549;37.044;22.128;2023-04-30T12:42:46;22.40;44.40
73322;DHT22;61549;37.044;22.128;2023-04-30T12:45:42;22.50;44.10
73322;DHT22;61549;37.044;22.128;2023-04-30T12:48:09;22.60;43.90
73322;DHT22;61549;37.044;22.128;2023-04-30T12:50:35;22.60;44.10
73322;DHT22;61549;37.044;22.128;2023-04-30T12:53:01;22.50;45.00
73322;DHT22;61549;37.044;22.128;2023-04-30T12:55:27;22.50;45.50
73322;DHT22;61549;37.044;22.128;2023-04-30T12:58:11;22.60;46.90
73322;DHT22;61549;37.044;22.128;2023-04-30T13:00:44;22.60;47.00
73322;DHT22;61549;37.044;22.128;2023-04-30T13:03:11;22.50;46.90
73322;DHT22;61549;37.044;22.128;2023-04-30T13:05:39;22.50;47.70
73322;DHT22;61549;37.044;22.128;2023-04-30T13:08:05;22.40;47.80
73322;DHT22;61549;37.044;22.128;2023-04-30T13:10:32;22.40;47.30
73322;DHT22;61549;37.044;22.128;2023-04-30T13:12:58;22.40;48.30
73322;DHT22;61549;37.044;22.128;2023-04-30T13:15:25;22.40;49.10
73322;DHT22;61549;37.044;22.128;2023-04-30T13:17:52;22.40;50.00
73322;DHT22;61549;37.044;22.128;2023-04-30T13:20:18;22.30;50.70
73322;DHT22;61549;37.044;22.128;2023-04-30T13:22:47;22.20;51.00
73322;DHT22;61549;37.044;22.128;2023-04-30T13:25:13;22.20;51.20
73322;DHT22;61549;37.044;22.128;2023-04-30T13:27:39;22.10;51.00
73322;DHT22;61549;37.044;22.128;2023-04-30T13:30:05;22.10;50.90
73322;DHT22;61549;37.044;22.128;2023-04-30T13:32:31;22.00;50.50
73322;DHT22;61549;37.044;22.128;2023-04-30T13:34:57;22.10;50.40
73322;DHT22;61549;37.044;22.128;2023-04-30T13:37:23;22.10;50.70
73322;DHT22;61549;37.044;22.128;2023-04-30T13:39:48;22.00;51.00
73322;DHT22;61549;37.044;22.128;2023-04-30T13:42:15;22.00;51.10
73322;DHT22;61549;37.044;22.128;2023-04-30T13:44:41;22.00;50.90
73322;DHT22;61549;37.044;22.128;2023-04-30T13:47:10;22.00;50.70
73322;DHT22;61549;37.044;22.128;2023-04-30T13:49:36;22.00;51.00
73322;DHT22;61549;37.044;22.128;2023-04-30T13:52:04;22.00;51.10
73322;DHT22;61549;37.044;22.128;2023-04-30T13:54:30;22.00;51.50
73322;DHT22;61549;37.044;22.128;2023-04-30T13:56:57;22.10;51.00
73322;DHT22;61549;37.044;22.128;2023-04-30T13:59:24;22.10;50.00
73322;DHT22;61549;37.044;22.128;2023-04-30T14:01:51;22.10;50.90
73322;DHT22;61549;37.044;22.128;2023-04-30T14:04:17;22.10;50.60
73322;DHT22;61549;37.044;22.128;2023-04-30T14:06:46;22.10;51.10
73322;DHT22;61549;37.044;22.128;2023-04-30T14:09:14;22.10;52.80
73322;DHT22;61549;37.044;22.128;2023-04-30T14:11:40;22.00;50.50
73322;DHT22;61549;37.044;22.128;2023-04-30T14:14:07;22.00;51.50
73322;DHT22;61549;37.044;22.128;2023-04-30T14:16:36;22.10;51.40
73322;DHT22;61549;37.044;22.128;2023-04-30T14:19:03;22.10;49.60
73322;DHT22;61549;37.044;22.128;2023-04-30T14:21:29;22.10;48.50
73322;DHT22;61549;37.044;22.128;2023-04-30T14:23:55;22.10;52.20
73322;DHT22;61549;37.044;22.128;2023-04-30T14:26:21;22.20;52.10
73322;DHT22;61549;37.044;22.128;2023-04-30T14:28:47;22.10;50.80
73322;DHT22;61549;37.044;22.128;2023-04-30T14:31:13;22.10;50.30
73322;DHT22;61549;37.044;22.128;2023-04-30T14:33:39;22.10;50.20
73322;DHT22;61549;37.044;22.128;2023-04-30T14:36:05;22.10;50.30
73322;DHT22;61549;37.044;22.128;2023-04-30T14:38:32;22.10;50.80
73322;DHT22;61549;37.044;22.128;2023-04-30T14:40:58;22.10;51.20
73322;DHT22;61549;37.044;22.128;2023-04-30T14:43:24;22.10;50.30
73322;DHT22;61549;37.044;22.128;2023-04-30T14:45:50;22.10;49.80
73322;DHT22;61549;37.044;22.128;2023-04-30T14:48:16;22.00;49.40
73322;DHT22;61549;37.044;22.128;2023-04-30T14:50:43;22.10;49.40
73322;DHT22;61549;37.044;22.128;2023-04-30T14:53:09;22.10;49.80
73322;DHT22;61549;37.044;22.128;2023-04-30T14:55:40;22.00;50.50
73322;DHT22;61549;37.044;22.128;2023-04-30T14:58:06;22.00;51.40
73322;DHT22;61549;37.044;22.128;2023-04-30T15:00:32;22.00;51.00
73322;DHT22;61549;37.044;22.128;2023-04-30T15:02:58;22.00;51.10
73322;DHT22;61549;37.044;22.128;2023-04-30T15:05:24;22.10;50.20
73322;DHT22;61549;37.044;22.128;2023-04-30T15:07:51;22.10;50.30
73322;DHT22;61549;37.044;22.128;2023-04-30T15:10:17;22.10;52.50
73322;DHT22;61549;37.044;22.128;2023-04-30T15:12:43;22.00;53.50
73322;DHT22;61549;37.044;22.128;2023-04-30T15:15:09;22.00;52.70
73322;DHT22;61549;37.044;22.128;2023-04-30T15:17:37;21.90;52.60
73322;DHT22;61549;37.044;22.128;2023-04-30T15:20:04;22.00;52.90
73322;DHT22;61549;37.044;22.128;2023-04-30T15:22:31;21.90;54.20
73322;DHT22;61549;37.044;22.128;2023-04-30T15:24:58;21.90;53.50
73322;DHT22;61549;37.044;22.128;2023-04-30T15:27:29;21.90;54.50
73322;DHT22;61549;37.044;22.128;2023-04-30T15:29:55;22.00;54.70
73322;DHT22;61549;37.044;22.128;2023-04-30T15:32:21;21.90;55.10
73322;DHT22;61549;37.044;22.128;2023-04-30T15:34:46;21.80;55.00
73322;DHT22;61549;37.044;22.128;2023-04-30T15:37:12;21.80;55.40
73322;DHT22;61549;37.044;22.128;2023-04-30T15:39:38;21.80;55.40
73322;DHT22;61549;37.044;22.128;2023-04-30T15:42:04;21.80;55.70
73322;DHT22;61549;37.044;22.128;2023-04-30T15:44:30;21.80;55.60
73322;DHT22;61549;37.044;22.128;2023-04-30T15:46:56;21.80;55.80